createdAt,value
2023-05-19T00:00:02.095Z,77.04
2023-05-19T00:03:00.542Z,77.04
2023-05-19T00:05:30.579Z,77.25
2023-05-19T00:07:59.376Z,77.21
2023-05-19T00:10:31.655Z,77.16
2023-05-19T00:13:00.221Z,77.12
2023-05-19T00:15:28.273Z,76.91
2023-05-19T00:17:56.655Z,76.79
2023-05-19T00:20:24.586Z,76.81
2023-05-19T00:22:52.316Z,76.55
2023-05-19T00:25:20.386Z,76.40
2023-05-19T00:27:48.215Z,76.30
2023-05-19T00:30:16.144Z,76.18
2023-05-19T00:32:44.304Z,76.14
2023-05-19T00:35:12.246Z,76.28
2023-05-19T00:37:40.068Z,76.22
2023-05-19T00:40:08.408Z,76.12
2023-05-19T00:42:36.271Z,75.93
2023-05-19T00:45:04.520Z,75.77
2023-05-19T00:47:32.435Z,75.83
2023-05-19T00:50:00.680Z,75.96
2023-05-19T00:52:28.752Z,75.83
2023-05-19T00:54:56.612Z,75.80
2023-05-19T00:57:24.603Z,76.04
2023-05-19T00:59:52.311Z,76.26
2023-05-19T01:02:21.594Z,76.38
2023-05-19T01:04:50.935Z,76.49
2023-05-19T01:07:19.921Z,76.45
2023-05-19T01:09:47.863Z,76.35
2023-05-19T01:12:16.523Z,76.20
2023-05-19T01:14:44.469Z,76.39
2023-05-19T01:17:20.728Z,76.50
2023-05-19T01:19:48.781Z,76.75
2023-05-19T01:22:23.045Z,76.71
2023-05-19T01:25:26.890Z,76.67
2023-05-19T01:28:08.254Z,76.62
2023-05-19T01:30:40.715Z,76.63
2023-05-19T01:33:10.639Z,76.51
2023-05-19T01:35:41.419Z,76.31
2023-05-19T01:38:10.354Z,76.16
2023-05-19T01:40:39.107Z,76.08
2023-05-19T01:43:07.904Z,76.04
2023-05-19T01:45:36.271Z,76.07
2023-05-19T01:48:05.319Z,76.05
2023-05-19T01:50:33.962Z,76.13
2023-05-19T01:53:02.143Z,75.99
2023-05-19T01:55:30.103Z,76.04
2023-05-19T01:58:17.917Z,75.87
2023-05-19T02:00:54.161Z,75.79
2023-05-19T02:03:29.697Z,75.72
2023-05-19T02:05:57.403Z,75.59
2023-05-19T02:08:38.673Z,75.47
2023-05-19T02:11:14.833Z,75.67
2023-05-19T02:13:44.456Z,75.70
2023-05-19T02:16:13.320Z,75.36
2023-05-19T02:18:45.780Z,75.23
2023-05-19T02:21:13.715Z,75.30
2023-05-19T02:23:41.994Z,75.31
2023-05-19T02:26:09.845Z,75.47
2023-05-19T02:28:37.566Z,75.51
2023-05-19T02:31:08.786Z,75.62
2023-05-19T02:33:37.716Z,75.53
2023-05-19T02:36:05.697Z,75.51
2023-05-19T02:38:33.402Z,75.63
2023-05-19T02:41:01.146Z,75.60
2023-05-19T02:43:30.624Z,75.53
2023-05-19T02:45:58.894Z,75.69
2023-05-19T02:48:27.513Z,75.51
2023-05-19T02:50:55.366Z,75.52
2023-05-19T02:53:23.129Z,75.64
2023-05-19T02:55:51.439Z,75.84
2023-05-19T02:58:20.590Z,75.93
2023-05-19T03:00:48.407Z,75.79
2023-05-19T03:03:16.517Z,75.88
2023-05-19T03:05:44.367Z,76.11
2023-05-19T03:08:12.131Z,75.96
2023-05-19T03:10:40.236Z,76.04
2023-05-19T03:13:08.010Z,76.13
2023-05-19T03:15:36.608Z,75.99
2023-05-19T03:18:04.913Z,76.00
2023-05-19T03:20:33.436Z,75.95
2023-05-19T03:23:01.641Z,75.81
2023-05-19T03:25:30.380Z,75.67
2023-05-19T03:27:58.150Z,75.31
2023-05-19T03:30:26.124Z,75.44
2023-05-19T03:33:03.653Z,75.37
2023-05-19T03:35:31.475Z,74.93
2023-05-19T03:37:59.519Z,75.02
2023-05-19T03:40:27.869Z,74.89
2023-05-19T03:43:01.304Z,74.99
2023-05-19T03:45:29.531Z,75.14
2023-05-19T03:47:57.641Z,75.25
2023-05-19T03:50:48.800Z,75.45
2023-05-19T03:53:23.976Z,75.41
2023-05-19T03:55:52.107Z,75.45
2023-05-19T03:58:20.385Z,75.52
2023-05-19T04:00:48.180Z,75.64
2023-05-19T04:03:16.501Z,75.71
2023-05-19T04:05:44.631Z,75.70
2023-05-19T04:08:12.479Z,75.67
2023-05-19T04:10:41.594Z,75.57
2023-05-19T04:13:09.386Z,75.45
2023-05-19T04:15:40.464Z,75.25
2023-05-19T04:18:09.885Z,74.93
2023-05-19T04:20:38.078Z,74.98
2023-05-19T04:23:05.960Z,74.83
2023-05-19T04:25:35.974Z,74.92
2023-05-19T04:28:04.212Z,74.73
2023-05-19T04:30:32.468Z,74.37
2023-05-19T04:33:01.223Z,75.59
2023-05-19T04:35:29.226Z,74.45
2023-05-19T04:37:58.608Z,73.83
2023-05-19T04:40:31.296Z,73.64
2023-05-19T04:43:02.001Z,73.56
2023-05-19T04:45:30.378Z,73.78
2023-05-19T04:48:00.573Z,73.85
2023-05-19T04:50:29.788Z,73.76
2023-05-19T04:52:59.345Z,73.95
2023-05-19T04:55:27.668Z,73.83
2023-05-19T04:57:56.148Z,73.85
2023-05-19T05:00:23.883Z,73.67
2023-05-19T05:02:58.905Z,73.79
2023-05-19T05:05:28.499Z,74.00
2023-05-19T05:07:57.483Z,73.87
2023-05-19T05:10:26.233Z,73.68
2023-05-19T05:12:54.539Z,73.44
2023-05-19T05:15:24.234Z,73.30
2023-05-19T05:17:52.380Z,73.31
2023-05-19T05:20:21.651Z,73.53
2023-05-19T05:22:49.522Z,73.56
2023-05-19T05:25:18.117Z,73.53
2023-05-19T05:27:46.190Z,73.71
2023-05-19T05:30:14.862Z,73.64
2023-05-19T05:32:43.136Z,73.40
2023-05-19T05:35:18.862Z,73.39
2023-05-19T05:37:46.859Z,73.09
2023-05-19T05:40:14.923Z,73.16
2023-05-19T05:42:43.413Z,73.31
2023-05-19T05:45:11.615Z,73.21
2023-05-19T05:47:41.576Z,72.87
2023-05-19T05:50:10.318Z,72.61
2023-05-19T05:52:39.562Z,72.48
2023-05-19T05:55:07.940Z,72.39
2023-05-19T05:57:36.582Z,72.36
2023-05-19T06:00:14.562Z,72.36
2023-05-19T06:02:50.709Z,72.36
2023-05-19T06:05:21.180Z,72.40
2023-05-19T06:07:49.512Z,72.36
2023-05-19T06:10:23.584Z,72.47
2023-05-19T06:12:51.412Z,72.00
2023-05-19T06:15:19.829Z,71.14
2023-05-19T06:17:58.142Z,71.01
2023-05-19T06:20:26.535Z,70.83
2023-05-19T06:22:55.026Z,70.58
2023-05-19T06:25:24.706Z,70.31
2023-05-19T06:27:53.192Z,70.05
2023-05-19T06:30:21.332Z,70.35
2023-05-19T06:33:13.832Z,70.01
2023-05-19T06:35:42.210Z,69.69
2023-05-19T06:38:10.164Z,69.69
2023-05-19T06:40:38.157Z,69.50
2023-05-19T06:43:06.243Z,69.32
2023-05-19T06:45:57.180Z,69.16
2023-05-19T06:48:26.347Z,68.90
2023-05-19T06:50:54.182Z,68.11
2023-05-19T06:53:22.462Z,67.90
2023-05-19T06:55:59.437Z,67.75
2023-05-19T06:58:31.289Z,67.84
2023-05-19T07:01:00.034Z,68.00
2023-05-19T07:03:31.700Z,68.08
2023-05-19T07:06:00.701Z,68.09
2023-05-19T07:08:29.558Z,67.81
2023-05-19T07:10:58.743Z,67.73
2023-05-19T07:13:27.483Z,67.42
2023-05-19T07:15:56.594Z,67.08
2023-05-19T07:18:25.583Z,67.07
2023-05-19T07:20:53.921Z,66.14
2023-05-19T07:23:22.021Z,65.50
2023-05-19T07:25:50.124Z,65.03
2023-05-19T07:28:17.968Z,64.35
2023-05-19T07:30:46.482Z,63.67
2023-05-19T07:33:16.438Z,62.81
2023-05-19T07:35:45.926Z,62.91
2023-05-19T07:38:13.949Z,63.15
2023-05-19T07:40:41.608Z,63.12
2023-05-19T07:43:09.507Z,63.11
2023-05-19T07:45:38.141Z,63.14
2023-05-19T07:48:06.456Z,63.33
2023-05-19T07:50:34.779Z,63.35
2023-05-19T07:53:03.161Z,63.80
2023-05-19T07:55:30.920Z,63.12
2023-05-19T07:57:58.976Z,62.13
2023-05-19T08:00:26.932Z,60.98
2023-05-19T08:02:57.319Z,59.78
2023-05-19T08:05:26.102Z,58.90
2023-05-19T08:07:53.971Z,58.02
2023-05-19T08:10:21.869Z,57.94
2023-05-19T08:12:49.700Z,57.55
2023-05-19T08:15:17.478Z,57.03
2023-05-19T08:17:45.524Z,56.50
2023-05-19T08:20:13.635Z,56.41
2023-05-19T08:22:41.923Z,56.23
2023-05-19T08:25:10.385Z,55.99
2023-05-19T08:27:38.164Z,55.90
2023-05-19T08:30:06.358Z,55.97
2023-05-19T08:32:34.391Z,55.56
2023-05-19T08:35:02.302Z,55.58
2023-05-19T08:37:32.048Z,55.90
2023-05-19T08:40:04.245Z,55.98
2023-05-19T08:42:33.235Z,56.81
2023-05-19T08:45:01.998Z,57.41
2023-05-19T08:47:30.141Z,57.57
2023-05-19T08:50:03.759Z,57.84
2023-05-19T08:52:35.779Z,57.94
2023-05-19T08:55:13.166Z,58.24
2023-05-19T08:57:41.641Z,58.55
2023-05-19T09:00:12.086Z,58.28
2023-05-19T09:02:50.405Z,58.52
2023-05-19T09:05:28.528Z,58.83
2023-05-19T09:07:57.382Z,58.77
2023-05-19T09:10:27.061Z,58.58
2023-05-19T09:12:55.101Z,58.07
2023-05-19T09:15:26.766Z,57.23
2023-05-19T09:18:06.927Z,56.85
2023-05-19T09:20:40.060Z,57.03
2023-05-19T09:23:08.405Z,56.87
2023-05-19T09:25:36.417Z,56.72
2023-05-19T09:28:04.269Z,56.82
2023-05-19T09:30:33.340Z,56.60
2023-05-19T09:33:01.402Z,56.61
2023-05-19T09:35:29.546Z,57.20
2023-05-19T09:37:57.554Z,56.47
2023-05-19T09:40:27.764Z,56.01
2023-05-19T09:42:55.972Z,55.93
2023-05-19T09:45:27.279Z,56.36
2023-05-19T09:47:55.140Z,56.44
2023-05-19T09:50:23.274Z,56.16
2023-05-19T09:52:53.180Z,56.17
2023-05-19T09:55:24.011Z,55.73
2023-05-19T09:57:52.999Z,56.10
2023-05-19T10:00:21.537Z,56.61
2023-05-19T10:02:50.878Z,56.52
2023-05-19T10:05:22.835Z,56.04
2023-05-19T10:07:52.726Z,55.02
2023-05-19T10:10:21.765Z,55.33
2023-05-19T10:12:50.004Z,55.06
2023-05-19T10:15:20.561Z,54.16
2023-05-19T10:17:50.000Z,53.29
2023-05-19T10:20:18.051Z,53.57
2023-05-19T10:22:46.511Z,53.77
2023-05-19T10:25:15.410Z,54.49
2023-05-19T10:27:44.969Z,54.85
2023-05-19T10:30:16.707Z,54.72
2023-05-19T10:32:46.749Z,54.63
2023-05-19T10:35:14.566Z,54.80
2023-05-19T10:38:01.010Z,54.24
2023-05-19T10:40:31.018Z,53.40
2023-05-19T10:43:07.449Z,53.19
2023-05-19T10:45:39.498Z,53.09
2023-05-19T10:48:10.971Z,52.82
2023-05-19T10:50:39.005Z,52.54
2023-05-19T10:53:14.092Z,52.52
2023-05-19T10:55:46.704Z,52.69
2023-05-19T10:58:14.873Z,52.56
2023-05-19T11:00:42.644Z,52.77
2023-05-19T11:03:19.068Z,52.53
2023-05-19T11:05:50.087Z,51.34
2023-05-19T11:08:31.765Z,50.85
2023-05-19T11:11:12.697Z,49.59
2023-05-19T11:13:43.098Z,48.26
2023-05-19T11:16:11.157Z,47.90
2023-05-19T11:18:39.308Z,48.81
2023-05-19T11:21:07.219Z,49.24
2023-05-19T11:23:38.179Z,49.58
2023-05-19T11:26:07.459Z,49.55
2023-05-19T11:28:36.618Z,50.08
2023-05-19T11:31:08.311Z,49.81
2023-05-19T11:33:36.056Z,50.38
2023-05-19T11:36:04.330Z,50.87
2023-05-19T11:38:32.920Z,50.69
2023-05-19T11:41:01.031Z,50.30
2023-05-19T11:43:28.989Z,50.33
2023-05-19T11:45:57.401Z,50.14
2023-05-19T11:48:26.531Z,49.72
2023-05-19T11:50:54.543Z,50.19
2023-05-19T11:53:23.379Z,50.67
2023-05-19T11:55:51.792Z,50.54
2023-05-19T11:58:25.792Z,49.93
2023-05-19T12:00:54.180Z,50.10
2023-05-19T12:03:22.891Z,50.97
2023-05-19T12:05:50.976Z,51.59
2023-05-19T12:08:19.181Z,51.57
2023-05-19T12:10:51.617Z,52.10
2023-05-19T12:13:19.932Z,52.74
2023-05-19T12:15:50.728Z,53.15
2023-05-19T12:18:19.433Z,53.63
2023-05-19T12:20:47.526Z,53.91
2023-05-19T12:23:15.791Z,53.78
2023-05-19T12:25:43.557Z,53.47
2023-05-19T12:28:11.670Z,53.60
2023-05-19T12:30:39.750Z,53.80
2023-05-19T12:33:08.639Z,54.32
2023-05-19T12:35:37.535Z,54.75
2023-05-19T12:38:06.467Z,54.76
2023-05-19T12:40:35.997Z,54.80
2023-05-19T12:43:04.657Z,52.26
2023-05-19T12:45:37.096Z,47.39
2023-05-19T12:48:06.952Z,44.44
2023-05-19T12:50:37.435Z,43.24
2023-05-19T12:53:08.748Z,42.77
2023-05-19T12:55:43.617Z,42.47
2023-05-19T12:58:11.910Z,42.52
2023-05-19T13:00:45.208Z,42.61
2023-05-19T13:03:17.520Z,42.39
2023-05-19T13:05:47.275Z,41.10
2023-05-19T13:08:19.966Z,40.53
2023-05-19T13:10:49.251Z,40.27
2023-05-19T13:13:17.231Z,39.95
2023-05-19T13:15:46.162Z,39.81
2023-05-19T13:18:14.386Z,39.65
2023-05-19T13:20:43.609Z,39.42
2023-05-19T13:23:11.725Z,39.50
2023-05-19T13:25:40.440Z,39.58
2023-05-19T13:28:08.593Z,40.13
2023-05-19T13:30:38.742Z,39.95
2023-05-19T13:33:06.654Z,39.45
2023-05-19T13:35:37.981Z,39.59
2023-05-19T13:38:07.069Z,39.45
2023-05-19T13:40:35.460Z,38.45
2023-05-19T13:43:04.322Z,38.67
2023-05-19T13:45:32.220Z,38.06
2023-05-19T13:48:00.698Z,38.26
2023-05-19T13:50:29.480Z,38.58
2023-05-19T13:52:57.730Z,39.11
2023-05-19T13:55:27.516Z,39.40
2023-05-19T13:57:55.615Z,39.41
2023-05-19T14:00:24.047Z,40.20
2023-05-19T14:02:51.956Z,40.30
2023-05-19T14:05:20.033Z,40.61
2023-05-19T14:07:47.920Z,42.13
2023-05-19T14:10:16.214Z,42.91
2023-05-19T14:13:08.061Z,43.44
2023-05-19T14:15:37.559Z,43.97
2023-05-19T14:18:06.960Z,44.53
2023-05-19T14:20:35.663Z,44.97
2023-05-19T14:23:04.131Z,45.42
2023-05-19T14:25:32.053Z,45.82
2023-05-19T14:28:00.262Z,45.62
2023-05-19T14:30:28.154Z,45.55
2023-05-19T14:32:56.223Z,45.49
2023-05-19T14:35:24.714Z,45.59
2023-05-19T14:37:52.616Z,45.56
2023-05-19T14:40:20.536Z,45.47
2023-05-19T14:42:48.781Z,45.68
2023-05-19T14:45:16.950Z,45.94
2023-05-19T14:47:44.926Z,46.19
2023-05-19T14:50:13.922Z,46.46
2023-05-19T14:52:41.873Z,46.61
2023-05-19T14:55:10.627Z,46.96
2023-05-19T14:57:38.785Z,47.10
2023-05-19T15:00:06.878Z,47.01
2023-05-19T15:02:34.957Z,46.28
2023-05-19T15:05:03.115Z,45.34
2023-05-19T15:07:30.952Z,44.97
2023-05-19T15:09:58.768Z,44.58
2023-05-19T15:12:26.784Z,44.38
2023-05-19T15:14:54.726Z,44.65
2023-05-19T15:17:22.740Z,44.19
2023-05-19T15:19:50.748Z,43.59
2023-05-19T15:22:18.706Z,43.58
2023-05-19T15:24:46.433Z,43.30
2023-05-19T15:27:14.697Z,43.31
2023-05-19T15:29:42.598Z,43.29
2023-05-19T15:32:10.501Z,43.33
2023-05-19T15:34:38.532Z,44.27
2023-05-19T15:37:06.431Z,44.61
2023-05-19T15:39:35.203Z,45.03
2023-05-19T15:42:03.043Z,46.07
2023-05-19T15:44:30.991Z,46.46
2023-05-19T15:46:59.014Z,46.23
2023-05-19T15:49:26.865Z,46.46
2023-05-19T15:51:54.839Z,46.57
2023-05-19T15:54:22.946Z,46.72
2023-05-19T15:56:50.740Z,46.92
2023-05-19T15:59:18.601Z,47.24
2023-05-19T16:01:46.457Z,47.46
2023-05-19T16:04:14.373Z,47.43
2023-05-19T16:06:42.145Z,48.04
2023-05-19T16:09:10.084Z,48.72
2023-05-19T16:11:37.950Z,48.62
2023-05-19T16:14:05.826Z,48.74
2023-05-19T16:16:33.921Z,48.93
2023-05-19T16:19:02.122Z,49.72
2023-05-19T16:21:30.025Z,50.09
2023-05-19T16:23:58.141Z,50.17
2023-05-19T16:26:26.508Z,50.41
2023-05-19T16:28:54.556Z,50.46
2023-05-19T16:31:23.016Z,50.38
2023-05-19T16:33:51.239Z,50.39
2023-05-19T16:36:19.886Z,50.92
2023-05-19T16:38:47.922Z,52.12
2023-05-19T16:41:16.037Z,53.08
2023-05-19T16:43:43.803Z,53.27
2023-05-19T16:46:12.504Z,54.17
2023-05-19T16:48:40.495Z,54.19
2023-05-19T16:51:08.311Z,55.01
2023-05-19T16:53:36.646Z,55.64
2023-05-19T16:56:04.792Z,56.15
2023-05-19T16:58:32.500Z,56.57
2023-05-19T17:01:00.555Z,56.96
2023-05-19T17:03:30.680Z,56.82
2023-05-19T17:05:58.497Z,56.61
2023-05-19T17:08:26.500Z,57.50
2023-05-19T17:10:54.402Z,57.56
2023-05-19T17:13:22.281Z,56.87
2023-05-19T17:15:52.536Z,58.12
2023-05-19T17:18:20.277Z,57.68
2023-05-19T17:20:47.969Z,58.93
2023-05-19T17:23:16.134Z,59.73
2023-05-19T17:25:44.156Z,60.27
2023-05-19T17:28:11.883Z,60.67
2023-05-19T17:30:40.317Z,60.86
2023-05-19T17:33:08.106Z,61.21
2023-05-19T17:35:36.326Z,61.31
2023-05-19T17:38:04.511Z,61.49
2023-05-19T17:40:33.398Z,60.65
2023-05-19T17:43:01.312Z,60.60
2023-05-19T17:45:29.729Z,60.48
2023-05-19T17:47:57.511Z,59.42
2023-05-19T17:50:25.753Z,57.98
2023-05-19T17:52:54.696Z,55.82
2023-05-19T17:55:22.740Z,54.80
2023-05-19T17:57:50.921Z,53.91
2023-05-19T18:00:19.617Z,53.90
2023-05-19T18:02:47.648Z,54.42
2023-05-19T18:05:16.050Z,55.05
2023-05-19T18:07:44.348Z,55.90
2023-05-19T18:10:14.308Z,56.64
2023-05-19T18:12:42.247Z,57.23
2023-05-19T18:15:10.476Z,57.71
2023-05-19T18:17:38.317Z,58.15
2023-05-19T18:20:06.731Z,58.66
2023-05-19T18:22:34.682Z,58.90
2023-05-19T18:25:02.378Z,59.42
2023-05-19T18:27:31.334Z,59.80
2023-05-19T18:29:59.298Z,59.98
2023-05-19T18:32:27.155Z,60.22
2023-05-19T18:34:54.951Z,60.18
2023-05-19T18:37:22.756Z,60.44
2023-05-19T18:39:50.810Z,60.62
2023-05-19T18:42:18.580Z,60.48
2023-05-19T18:44:50.926Z,60.50
2023-05-19T18:47:23.121Z,60.56
2023-05-19T18:49:51.181Z,60.73
2023-05-19T18:52:19.885Z,60.95
2023-05-19T18:54:47.865Z,61.52
2023-05-19T18:57:15.786Z,61.92
2023-05-19T18:59:43.479Z,62.47
2023-05-19T19:02:11.411Z,63.38
2023-05-19T19:04:39.468Z,63.38
2023-05-19T19:07:07.387Z,63.41
2023-05-19T19:09:35.037Z,63.71
2023-05-19T19:12:02.955Z,63.83
2023-05-19T19:14:31.038Z,63.92
2023-05-19T19:16:58.863Z,63.90
2023-05-19T19:19:29.789Z,63.86
2023-05-19T19:21:57.855Z,63.95
2023-05-19T19:24:26.486Z,63.94
2023-05-19T19:26:54.511Z,64.07
2023-05-19T19:29:22.400Z,64.15
2023-05-19T19:31:50.354Z,64.07
2023-05-19T19:34:19.999Z,63.93
2023-05-19T19:36:48.244Z,64.00
2023-05-19T19:39:16.869Z,64.04
2023-05-19T19:41:44.846Z,63.57
2023-05-19T19:44:13.712Z,63.22
2023-05-19T19:46:41.789Z,63.04
2023-05-19T19:49:09.797Z,62.60
2023-05-19T19:51:37.754Z,62.38
2023-05-19T19:54:05.692Z,62.14
2023-05-19T19:56:33.699Z,61.80
2023-05-19T19:59:01.562Z,61.30
2023-05-19T20:01:29.530Z,60.98
2023-05-19T20:03:57.878Z,61.28
2023-05-19T20:06:26.128Z,61.61
2023-05-19T20:08:54.216Z,62.16
2023-05-19T20:11:23.806Z,62.77
2023-05-19T20:13:52.312Z,63.48
2023-05-19T20:16:20.680Z,63.84
2023-05-19T20:18:48.831Z,64.27
2023-05-19T20:21:16.869Z,64.41
2023-05-19T20:23:44.845Z,64.65
2023-05-19T20:26:13.559Z,64.75
2023-05-19T20:28:41.775Z,65.22
2023-05-19T20:31:09.969Z,65.45
2023-05-19T20:33:38.002Z,65.68
2023-05-19T20:36:06.406Z,65.90
2023-05-19T20:38:34.342Z,66.07
2023-05-19T20:41:02.219Z,66.41
2023-05-19T20:43:32.101Z,66.81
2023-05-19T20:46:01.570Z,66.76
2023-05-19T20:48:29.662Z,67.06
2023-05-19T20:50:57.581Z,67.48
2023-05-19T20:53:25.437Z,67.84
2023-05-19T20:55:53.093Z,68.18
2023-05-19T20:58:21.326Z,68.35
2023-05-19T21:00:53.474Z,68.57
2023-05-19T21:03:23.395Z,68.79
2023-05-19T21:05:51.466Z,68.91
2023-05-19T21:08:19.363Z,69.11
2023-05-19T21:10:47.532Z,69.35
2023-05-19T21:13:15.390Z,69.45
2023-05-19T21:15:43.766Z,69.53
2023-05-19T21:18:12.042Z,69.63
2023-05-19T21:20:40.191Z,69.77
2023-05-19T21:23:08.143Z,69.88
2023-05-19T21:25:36.094Z,69.97
2023-05-19T21:28:04.192Z,69.95
2023-05-19T21:30:32.609Z,69.83
2023-05-19T21:33:01.012Z,69.80
2023-05-19T21:35:28.973Z,69.78
2023-05-19T21:37:56.885Z,69.71
2023-05-19T21:40:24.780Z,69.64
2023-05-19T21:42:52.507Z,69.54
2023-05-19T21:45:20.334Z,69.54
2023-05-19T21:47:48.591Z,69.54
2023-05-19T21:50:17.576Z,69.55
2023-05-19T21:52:45.882Z,69.67
2023-05-19T21:55:13.637Z,69.67
2023-05-19T21:57:41.570Z,69.64
2023-05-19T22:00:13.017Z,69.62
2023-05-19T22:02:41.262Z,69.53
2023-05-19T22:05:09.679Z,69.55
2023-05-19T22:07:37.888Z,69.62
2023-05-19T22:10:05.913Z,69.78
2023-05-19T22:12:34.070Z,69.85
2023-05-19T22:15:02.935Z,69.99
2023-05-19T22:17:30.765Z,70.22
2023-05-19T22:19:59.052Z,70.11
2023-05-19T22:22:26.792Z,70.17
2023-05-19T22:24:54.495Z,70.22
2023-05-19T22:27:22.338Z,70.24
2023-05-19T22:29:50.685Z,70.11
2023-05-19T22:32:19.602Z,70.48
2023-05-19T22:34:47.908Z,70.87
2023-05-19T22:37:15.813Z,71.20
2023-05-19T22:39:43.804Z,71.20
2023-05-19T22:42:11.704Z,71.11
2023-05-19T22:44:39.487Z,70.94
2023-05-19T22:47:13.293Z,70.79
2023-05-19T22:49:41.829Z,71.04
2023-05-19T22:52:10.432Z,71.12
2023-05-19T22:54:38.176Z,71.20
2023-05-19T22:57:06.639Z,71.23
2023-05-19T22:59:35.605Z,71.21
2023-05-19T23:02:04.176Z,71.21
2023-05-19T23:04:32.627Z,71.19
2023-05-19T23:07:00.845Z,71.09
2023-05-19T23:09:29.195Z,71.13
2023-05-19T23:11:56.992Z,71.16
2023-05-19T23:14:26.002Z,71.10
2023-05-19T23:16:53.840Z,71.15
2023-05-19T23:19:22.520Z,71.33
2023-05-19T23:21:50.447Z,71.60
2023-05-19T23:24:18.376Z,71.84
2023-05-19T23:26:46.215Z,71.99
2023-05-19T23:29:14.972Z,72.10
2023-05-19T23:31:43.488Z,72.22
2023-05-19T23:34:11.592Z,72.24
2023-05-19T23:36:39.517Z,72.13
2023-05-19T23:39:07.461Z,72.01
2023-05-19T23:41:37.036Z,72.00
2023-05-19T23:44:04.785Z,72.26
2023-05-19T23:46:32.695Z,72.42
2023-05-19T23:49:00.892Z,72.61
2023-05-19T23:51:28.580Z,72.57
2023-05-19T23:53:56.339Z,72.43
2023-05-19T23:56:24.352Z,72.48
2023-05-19T23:58:52.043Z,72.55
